Matoaca, Virginia
Current Conditions -  °F | °C
As of 10:35 AM on Saturday 22 Nov 2014 (Local Time) from KPTB Reporting Station
Clear Clear  
Wind Chill: 39°   Ceiling: Unl
Heat Index: 43°   Visibility: 10mi
Dew Point: 16°   Wind: 7mph
Humidity: 33%   Direction: 210°SSW
Pressure: 30.56"   Gusts: NA
Location:  37.2163°N, 77.4783°W
Report Text: KPTB 221535Z AUTO 21006KT 10SM CLR 06/M09 A3056 RMK AO2 T00621090
Loading
Personal Weather Stations






























Interactive Weather Map New forecast layout! Learn more

10-Day Weather Forecast

Advertisements
Track Severe Weather on mobile